sensor_id;sensor_type;location;lat;lon;timestamp;pressure;altitude;pressure_sealevel;temperature;humidity
47154;BME280;32907;41.412;2.164;2023-05-10T00:00:39;100563.69;;;23.09;48.11
47154;BME280;32907;41.412;2.164;2023-05-10T00:03:08;100664.97;;;23.77;47.83
47154;BME280;32907;41.412;2.164;2023-05-10T00:05:36;100596.66;;;23.27;48.23
47154;BME280;32907;41.412;2.164;2023-05-10T00:08:04;100639.91;;;23.61;47.86
47154;BME280;32907;41.412;2.164;2023-05-10T00:10:32;100726.91;;;24.17;48.27
47154;BME280;32907;41.412;2.164;2023-05-10T00:13:00;100685.56;;;24.05;48.48
47154;BME280;32907;41.412;2.164;2023-05-10T00:15:31;100581.56;;;23.29;48.24
47154;BME280;32907;41.412;2.164;2023-05-10T00:17:59;100564.66;;;23.27;48.36
47154;BME280;32907;41.412;2.164;2023-05-10T00:20:27;100671.22;;;23.99;48.33
47154;BME280;32907;41.412;2.164;2023-05-10T00:22:55;100606.13;;;23.43;48.54
47154;BME280;32907;41.412;2.164;2023-05-10T00:25:23;100567.88;;;23.29;48.21
47154;BME280;32907;41.412;2.164;2023-05-10T00:27:52;100622.03;;;23.63;48.42
47154;BME280;32907;41.412;2.164;2023-05-10T00:30:26;100560.28;;;23.26;48.51
47154;BME280;32907;41.412;2.164;2023-05-10T00:32:55;100510.38;;;22.98;48.31
47154;BME280;32907;41.412;2.164;2023-05-10T00:35:23;100763.03;;;24.50;48.55
47154;BME280;32907;41.412;2.164;2023-05-10T00:37:51;100537.22;;;23.19;48.23
47154;BME280;32907;41.412;2.164;2023-05-10T00:40:20;100574.78;;;23.27;48.22
47154;BME280;32907;41.412;2.164;2023-05-10T00:42:53;100645.97;;;23.80;48.51
47154;BME280;32907;41.412;2.164;2023-05-10T00:45:22;100510.56;;;23.02;48.40
47154;BME280;32907;41.412;2.164;2023-05-10T00:47:51;100649.75;;;23.93;48.78
47154;BME280;32907;41.412;2.164;2023-05-10T00:50:24;100542.44;;;23.29;48.63
47154;BME280;32907;41.412;2.164;2023-05-10T00:52:53;100626.25;;;23.69;48.34
47154;BME280;32907;41.412;2.164;2023-05-10T00:55:22;100515.09;;;23.06;48.66
47154;BME280;32907;41.412;2.164;2023-05-10T00:57:52;100678.25;;;23.92;48.62
47154;BME280;32907;41.412;2.164;2023-05-10T01:00:21;100570.50;;;23.34;48.63
47154;BME280;32907;41.412;2.164;2023-05-10T01:02:49;100584.81;;;23.40;48.60
47154;BME280;32907;41.412;2.164;2023-05-10T01:05:18;100492.38;;;22.83;49.00
47154;BME280;32907;41.412;2.164;2023-05-10T01:07:49;100508.50;;;23.07;48.84
47154;BME280;32907;41.412;2.164;2023-05-10T01:10:18;100466.41;;;22.86;48.86
47154;BME280;32907;41.412;2.164;2023-05-10T01:12:46;100554.34;;;23.33;48.72
47154;BME280;32907;41.412;2.164;2023-05-10T01:15:16;100671.22;;;23.99;48.89
47154;BME280;32907;41.412;2.164;2023-05-10T01:17:47;100515.72;;;23.03;48.67
47154;BME280;32907;41.412;2.164;2023-05-10T01:20:19;100569.91;;;23.46;48.68
47154;BME280;32907;41.412;2.164;2023-05-10T01:23:01;100707.34;;;24.33;48.69
47154;BME280;32907;41.412;2.164;2023-05-10T01:31:08;100578.28;;;23.50;48.64
47154;BME280;32907;41.412;2.164;2023-05-10T01:36:23;100690.19;;;24.27;48.71
47154;BME280;32907;41.412;2.164;2023-05-10T01:39:02;100496.06;;;23.01;48.69
47154;BME280;32907;41.412;2.164;2023-05-10T01:41:42;100687.94;;;24.29;48.44
47154;BME280;32907;41.412;2.164;2023-05-10T01:47:20;100511.25;;;23.07;48.29
47154;BME280;32907;41.412;2.164;2023-05-10T01:49:54;100673.34;;;24.11;48.32
47154;BME280;32907;41.412;2.164;2023-05-10T01:52:33;100434.91;;;22.75;48.28
47154;BME280;32907;41.412;2.164;2023-05-10T01:55:04;100572.75;;;23.63;47.86
47154;BME280;32907;41.412;2.164;2023-05-10T01:57:37;100421.94;;;22.58;47.80
47154;BME280;32907;41.412;2.164;2023-05-10T02:00:07;100556.22;;;23.46;48.04
47154;BME280;32907;41.412;2.164;2023-05-10T02:02:49;100553.06;;;23.30;47.56
47154;BME280;32907;41.412;2.164;2023-05-10T02:05:19;100565.19;;;23.38;47.60
47154;BME280;32907;41.412;2.164;2023-05-10T02:07:49;100586.44;;;23.41;47.54
47154;BME280;32907;41.412;2.164;2023-05-10T02:10:18;100605.22;;;23.56;47.61
47154;BME280;32907;41.412;2.164;2023-05-10T02:12:48;100512.19;;;23.03;47.90
47154;BME280;32907;41.412;2.164;2023-05-10T02:15:21;100531.13;;;23.22;47.74
47154;BME280;32907;41.412;2.164;2023-05-10T02:17:52;100674.25;;;23.98;47.33
47154;BME280;32907;41.412;2.164;2023-05-10T02:20:23;100677.09;;;24.15;47.23
47154;BME280;32907;41.412;2.164;2023-05-10T02:22:55;100510.47;;;23.15;47.09
47154;BME280;32907;41.412;2.164;2023-05-10T02:25:30;100675.28;;;24.11;46.96
47154;BME280;32907;41.412;2.164;2023-05-10T02:28:01;100441.13;;;22.67;46.80
47154;BME280;32907;41.412;2.164;2023-05-10T02:30:32;100591.47;;;23.48;46.89
47154;BME280;32907;41.412;2.164;2023-05-10T02:33:03;100700.44;;;24.13;47.08
47154;BME280;32907;41.412;2.164;2023-05-10T02:35:34;100550.75;;;23.24;47.15
47154;BME280;32907;41.412;2.164;2023-05-10T02:38:04;100441.44;;;22.43;47.20
47154;BME280;32907;41.412;2.164;2023-05-10T02:40:33;100501.19;;;22.94;47.33
47154;BME280;32907;41.412;2.164;2023-05-10T02:43:04;100657.88;;;23.76;47.45
47154;BME280;32907;41.412;2.164;2023-05-10T02:45:35;100484.75;;;22.72;46.95
47154;BME280;32907;41.412;2.164;2023-05-10T02:48:06;100551.88;;;23.23;47.20
47154;BME280;32907;41.412;2.164;2023-05-10T02:50:36;100454.31;;;22.65;47.31
47154;BME280;32907;41.412;2.164;2023-05-10T02:53:11;100419.28;;;22.44;47.71
47154;BME280;32907;41.412;2.164;2023-05-10T02:55:45;100590.63;;;23.38;47.59
47154;BME280;32907;41.412;2.164;2023-05-10T02:58:17;100525.28;;;23.14;47.55
47154;BME280;32907;41.412;2.164;2023-05-10T03:00:47;100558.00;;;23.20;47.56
47154;BME280;32907;41.412;2.164;2023-05-10T03:03:16;100441.00;;;22.49;47.86
47154;BME280;32907;41.412;2.164;2023-05-10T03:05:44;100451.44;;;22.70;47.29
47154;BME280;32907;41.412;2.164;2023-05-10T03:08:13;100480.94;;;22.95;47.60
47154;BME280;32907;41.412;2.164;2023-05-10T03:11:00;100617.31;;;23.86;47.61
47154;BME280;32907;41.412;2.164;2023-05-10T03:13:46;100437.47;;;22.71;47.57
47154;BME280;32907;41.412;2.164;2023-05-10T03:16:24;100627.97;;;23.88;48.02
47154;BME280;32907;41.412;2.164;2023-05-10T03:21:48;100538.78;;;23.42;48.01
47154;BME280;32907;41.412;2.164;2023-05-10T03:24:21;100480.78;;;23.00;48.12
47154;BME280;32907;41.412;2.164;2023-05-10T03:26:56;100501.91;;;23.08;48.29
47154;BME280;32907;41.412;2.164;2023-05-10T03:29:26;100649.25;;;23.91;48.15
47154;BME280;32907;41.412;2.164;2023-05-10T03:31:55;100490.91;;;23.00;47.93
47154;BME280;32907;41.412;2.164;2023-05-10T03:34:26;100487.75;;;23.06;47.96
47154;BME280;32907;41.412;2.164;2023-05-10T03:36:56;100558.47;;;23.44;47.71
47154;BME280;32907;41.412;2.164;2023-05-10T03:39:26;100528.06;;;23.23;47.38
47154;BME280;32907;41.412;2.164;2023-05-10T03:41:57;100482.72;;;23.00;47.30
47154;BME280;32907;41.412;2.164;2023-05-10T03:44:27;100655.16;;;24.15;46.91
47154;BME280;32907;41.412;2.164;2023-05-10T03:46:56;100519.25;;;23.26;46.66
47154;BME280;32907;41.412;2.164;2023-05-10T03:49:24;100537.13;;;23.32;46.46
47154;BME280;32907;41.412;2.164;2023-05-10T03:51:52;100555.69;;;23.35;45.99
47154;BME280;32907;41.412;2.164;2023-05-10T03:54:21;100576.31;;;23.64;46.31
47154;BME280;32907;41.412;2.164;2023-05-10T03:56:52;100491.59;;;23.05;45.46
47154;BME280;32907;41.412;2.164;2023-05-10T03:59:21;100633.59;;;23.83;45.13
47154;BME280;32907;41.412;2.164;2023-05-10T04:01:51;100611.97;;;23.81;44.70
47154;BME280;32907;41.412;2.164;2023-05-10T04:04:20;100501.00;;;22.91;44.68
47154;BME280;32907;41.412;2.164;2023-05-10T04:06:50;100535.78;;;23.21;44.65
47154;BME280;32907;41.412;2.164;2023-05-10T04:09:21;100529.50;;;23.21;44.66
47154;BME280;32907;41.412;2.164;2023-05-10T04:11:51;100499.81;;;23.05;44.40
47154;BME280;32907;41.412;2.164;2023-05-10T04:14:21;100524.72;;;23.26;43.89
47154;BME280;32907;41.412;2.164;2023-05-10T04:16:49;100503.59;;;23.18;43.86
47154;BME280;32907;41.412;2.164;2023-05-10T04:19:18;100463.25;;;22.79;43.37
47154;BME280;32907;41.412;2.164;2023-05-10T04:21:46;100433.78;;;22.76;43.78
47154;BME280;32907;41.412;2.164;2023-05-10T04:24:14;100435.72;;;22.53;42.80
47154;BME280;32907;41.412;2.164;2023-05-10T04:26:42;100497.81;;;23.20;43.04
47154;BME280;32907;41.412;2.164;2023-05-10T04:29:10;100524.66;;;23.17;42.54
47154;BME280;32907;41.412;2.164;2023-05-10T04:31:41;100642.25;;;24.07;42.39
47154;BME280;32907;41.412;2.164;2023-05-10T04:34:10;100551.88;;;23.45;41.91
47154;BME280;32907;41.412;2.164;2023-05-10T04:36:38;100480.63;;;22.97;42.16
47154;BME280;32907;41.412;2.164;2023-05-10T04:39:06;100492.59;;;23.09;42.09
47154;BME280;32907;41.412;2.164;2023-05-10T04:41:34;100555.22;;;23.42;41.35
47154;BME280;32907;41.412;2.164;2023-05-10T04:44:05;100656.72;;;23.99;41.63
47154;BME280;32907;41.412;2.164;2023-05-10T04:46:34;100422.50;;;22.69;41.09
47154;BME280;32907;41.412;2.164;2023-05-10T04:49:02;100364.81;;;22.25;41.51
47154;BME280;32907;41.412;2.164;2023-05-10T04:51:30;100579.03;;;23.64;41.09
47154;BME280;32907;41.412;2.164;2023-05-10T04:54:00;100625.25;;;23.96;40.94
47154;BME280;32907;41.412;2.164;2023-05-10T04:56:33;100589.22;;;23.72;41.33
47154;BME280;32907;41.412;2.164;2023-05-10T04:59:01;100594.66;;;23.63;40.82
47154;BME280;32907;41.412;2.164;2023-05-10T05:01:29;100592.66;;;23.78;41.31
47154;BME280;32907;41.412;2.164;2023-05-10T05:03:57;100564.38;;;23.60;40.83
47154;BME280;32907;41.412;2.164;2023-05-10T05:06:27;100558.84;;;23.51;40.74
47154;BME280;32907;41.412;2.164;2023-05-10T05:08:55;100607.63;;;23.80;40.41
47154;BME280;32907;41.412;2.164;2023-05-10T05:11:23;100599.84;;;23.73;40.21
47154;BME280;32907;41.412;2.164;2023-05-10T05:13:51;100631.06;;;23.95;40.89
47154;BME280;32907;41.412;2.164;2023-05-10T05:16:19;100622.69;;;23.91;40.94
47154;BME280;32907;41.412;2.164;2023-05-10T05:18:47;100545.91;;;23.43;44.49
47154;BME280;32907;41.412;2.164;2023-05-10T05:21:17;100526.56;;;23.39;41.93
47154;BME280;32907;41.412;2.164;2023-05-10T05:23:45;100625.81;;;24.07;42.10
47154;BME280;32907;41.412;2.164;2023-05-10T05:26:14;100631.94;;;24.13;44.95
47154;BME280;32907;41.412;2.164;2023-05-10T05:28:42;100636.28;;;24.14;44.17
47154;BME280;32907;41.412;2.164;2023-05-10T05:31:10;100583.75;;;23.72;42.97
47154;BME280;32907;41.412;2.164;2023-05-10T05:33:39;100588.66;;;23.84;42.82
47154;BME280;32907;41.412;2.164;2023-05-10T05:36:07;100603.63;;;23.86;42.30
47154;BME280;32907;41.412;2.164;2023-05-10T05:38:36;100564.31;;;23.51;42.12
47154;BME280;32907;41.412;2.164;2023-05-10T05:41:04;100414.13;;;22.65;41.45
47154;BME280;32907;41.412;2.164;2023-05-10T05:43:33;100514.34;;;23.14;41.09
47154;BME280;32907;41.412;2.164;2023-05-10T05:46:04;100609.56;;;23.80;40.64
47154;BME280;32907;41.412;2.164;2023-05-10T05:48:32;100630.91;;;23.91;40.70
47154;BME280;32907;41.412;2.164;2023-05-10T05:51:00;100619.41;;;23.89;41.25
47154;BME280;32907;41.412;2.164;2023-05-10T05:53:30;100567.28;;;23.63;40.98
47154;BME280;32907;41.412;2.164;2023-05-10T05:55:58;100489.09;;;23.17;41.74
47154;BME280;32907;41.412;2.164;2023-05-10T05:58:26;100655.16;;;24.15;40.64
47154;BME280;32907;41.412;2.164;2023-05-10T06:00:54;100646.44;;;24.13;40.94
47154;BME280;32907;41.412;2.164;2023-05-10T06:03:22;100662.25;;;24.16;40.35
47154;BME280;32907;41.412;2.164;2023-05-10T06:05:50;100646.28;;;24.10;40.51
47154;BME280;32907;41.412;2.164;2023-05-10T06:08:18;100634.50;;;24.09;39.57
47154;BME280;32907;41.412;2.164;2023-05-10T06:10:46;100627.06;;;24.01;38.81
47154;BME280;32907;41.412;2.164;2023-05-10T06:13:14;100603.63;;;23.86;39.78
47154;BME280;32907;41.412;2.164;2023-05-10T06:15:44;100583.75;;;23.72;39.37
47154;BME280;32907;41.412;2.164;2023-05-10T06:18:12;100636.94;;;24.11;39.42
47154;BME280;32907;41.412;2.164;2023-05-10T06:20:41;100561.81;;;23.63;39.02
47154;BME280;32907;41.412;2.164;2023-05-10T06:23:11;100565.53;;;23.67;38.82
47154;BME280;32907;41.412;2.164;2023-05-10T06:25:39;100598.97;;;23.87;39.09
47154;BME280;32907;41.412;2.164;2023-05-10T06:28:07;100612.69;;;23.95;39.56
47154;BME280;32907;41.412;2.164;2023-05-10T06:30:36;100562.53;;;23.55;39.10
47154;BME280;32907;41.412;2.164;2023-05-10T06:33:05;100599.97;;;23.91;39.26
47154;BME280;32907;41.412;2.164;2023-05-10T06:35:33;100626.63;;;24.08;38.97
47154;BME280;32907;41.412;2.164;2023-05-10T06:38:01;100566.19;;;23.73;39.39
47154;BME280;32907;41.412;2.164;2023-05-10T06:40:30;100551.84;;;23.67;38.82
47154;BME280;32907;41.412;2.164;2023-05-10T06:42:58;100624.53;;;24.13;38.87
47154;BME280;32907;41.412;2.164;2023-05-10T06:45:26;100577.06;;;23.87;38.98
47154;BME280;32907;41.412;2.164;2023-05-10T06:47:54;100616.63;;;24.12;38.97
47154;BME280;32907;41.412;2.164;2023-05-10T06:50:22;100531.69;;;23.63;39.20
47154;BME280;32907;41.412;2.164;2023-05-10T06:52:50;100611.34;;;24.15;38.67
47154;BME280;32907;41.412;2.164;2023-05-10T06:55:19;100625.53;;;24.17;38.52
47154;BME280;32907;41.412;2.164;2023-05-10T06:57:47;100597.88;;;23.96;38.68
47154;BME280;32907;41.412;2.164;2023-05-10T07:00:15;100632.75;;;24.13;38.60
47154;BME280;32907;41.412;2.164;2023-05-10T07:02:44;100649.06;;;24.18;38.90
47154;BME280;32907;41.412;2.164;2023-05-10T07:05:13;100624.50;;;24.05;38.66
47154;BME280;32907;41.412;2.164;2023-05-10T07:07:42;100650.03;;;24.22;38.56
47154;BME280;32907;41.412;2.164;2023-05-10T07:10:10;100648.91;;;24.23;39.03
47154;BME280;32907;41.412;2.164;2023-05-10T07:12:38;100630.81;;;24.14;38.75
47154;BME280;32907;41.412;2.164;2023-05-10T07:15:13;100652.13;;;24.25;38.84
47154;BME280;32907;41.412;2.164;2023-05-10T07:17:41;100659.22;;;24.26;38.68
47154;BME280;32907;41.412;2.164;2023-05-10T07:20:12;100657.94;;;24.24;39.04
47154;BME280;32907;41.412;2.164;2023-05-10T07:22:40;100646.44;;;24.13;39.18
47154;BME280;32907;41.412;2.164;2023-05-10T07:25:08;100642.09;;;24.12;38.96
47154;BME280;32907;41.412;2.164;2023-05-10T07:27:36;100667.47;;;24.26;39.19
47154;BME280;32907;41.412;2.164;2023-05-10T07:30:04;100658.91;;;24.28;39.11
47154;BME280;32907;41.412;2.164;2023-05-10T07:32:32;100650.22;;;24.26;39.25
47154;BME280;32907;41.412;2.164;2023-05-10T07:35:00;100584.91;;;23.80;39.15
47154;BME280;32907;41.412;2.164;2023-05-10T07:37:28;100643.72;;;24.22;39.29
47154;BME280;32907;41.412;2.164;2023-05-10T07:39:56;100624.81;;;24.03;39.09
47154;BME280;32907;41.412;2.164;2023-05-10T07:42:24;100629.84;;;24.10;39.19
47154;BME280;32907;41.412;2.164;2023-05-10T07:44:53;100661.84;;;24.32;38.79
47154;BME280;32907;41.412;2.164;2023-05-10T07:47:21;100648.13;;;24.23;38.78
47154;BME280;32907;41.412;2.164;2023-05-10T07:49:49;100672.19;;;24.35;38.64
47154;BME280;32907;41.412;2.164;2023-05-10T07:52:17;100658.91;;;24.28;39.23
47154;BME280;32907;41.412;2.164;2023-05-10T07:54:48;100658.09;;;24.27;38.82
47154;BME280;32907;41.412;2.164;2023-05-10T07:57:17;100666.06;;;24.38;39.04
47154;BME280;32907;41.412;2.164;2023-05-10T07:59:45;100660.75;;;24.33;38.74
47154;BME280;32907;41.412;2.164;2023-05-10T08:02:14;100670.44;;;24.39;38.65
47154;BME280;32907;41.412;2.164;2023-05-10T08:04:42;100613.22;;;24.06;38.90
47154;BME280;32907;41.412;2.164;2023-05-10T08:07:10;100637.44;;;24.21;38.60
47154;BME280;32907;41.412;2.164;2023-05-10T08:09:38;100655.84;;;24.29;38.00
47154;BME280;32907;41.412;2.164;2023-05-10T08:12:07;100653.91;;;24.30;38.41
47154;BME280;32907;41.412;2.164;2023-05-10T08:14:35;100651.34;;;24.25;38.35
47154;BME280;32907;41.412;2.164;2023-05-10T08:17:04;100678.00;;;24.33;38.26
47154;BME280;32907;41.412;2.164;2023-05-10T08:19:32;100677.47;;;24.31;38.71
47154;BME280;32907;41.412;2.164;2023-05-10T08:22:00;100680.84;;;24.28;38.32
47154;BME280;32907;41.412;2.164;2023-05-10T08:24:28;100672.63;;;24.28;38.43
47154;BME280;32907;41.412;2.164;2023-05-10T08:26:56;100648.09;;;24.14;38.30
47154;BME280;32907;41.412;2.164;2023-05-10T08:29:24;100656.94;;;24.20;38.47
47154;BME280;32907;41.412;2.164;2023-05-10T08:31:56;100649.84;;;24.19;38.58
47154;BME280;32907;41.412;2.164;2023-05-10T08:34:24;100663.50;;;24.33;38.33
47154;BME280;32907;41.412;2.164;2023-05-10T08:36:52;100580.56;;;23.79;38.30
47154;BME280;32907;41.412;2.164;2023-05-10T08:39:20;100671.06;;;24.36;37.76
47154;BME280;32907;41.412;2.164;2023-05-10T08:42:01;100671.25;;;24.39;37.79
47154;BME280;32907;41.412;2.164;2023-05-10T08:44:32;100675.59;;;24.40;37.62
47154;BME280;32907;41.412;2.164;2023-05-10T08:47:04;100668.19;;;24.41;37.35
47154;BME280;32907;41.412;2.164;2023-05-10T08:49:32;100650.69;;;24.28;37.40
47154;BME280;32907;41.412;2.164;2023-05-10T08:52:03;100596.25;;;23.95;36.96
47154;BME280;32907;41.412;2.164;2023-05-10T08:54:33;100633.06;;;24.12;37.32
47154;BME280;32907;41.412;2.164;2023-05-10T08:57:01;100665.44;;;24.41;37.27
47154;BME280;32907;41.412;2.164;2023-05-10T08:59:29;100670.28;;;24.44;37.73
47154;BME280;32907;41.412;2.164;2023-05-10T09:01:59;100668.03;;;24.46;37.79
47154;BME280;32907;41.412;2.164;2023-05-10T09:04:28;100628.13;;;24.22;38.07
47154;BME280;32907;41.412;2.164;2023-05-10T09:06:57;100653.63;;;24.32;37.78
47154;BME280;32907;41.412;2.164;2023-05-10T09:09:25;100607.56;;;24.03;37.87
47154;BME280;32907;41.412;2.164;2023-05-10T09:11:55;100574.44;;;23.82;37.58
47154;BME280;32907;41.412;2.164;2023-05-10T09:14:24;100685.94;;;24.43;38.02
47154;BME280;32907;41.412;2.164;2023-05-10T09:16:53;100585.13;;;23.92;37.87
47154;BME280;32907;41.412;2.164;2023-05-10T09:19:23;100640.69;;;24.23;37.49
47154;BME280;32907;41.412;2.164;2023-05-10T09:21:51;100641.84;;;24.31;37.57
47154;BME280;32907;41.412;2.164;2023-05-10T09:24:19;100582.41;;;23.92;37.81
47154;BME280;32907;41.412;2.164;2023-05-10T09:26:48;100672.88;;;24.49;37.70
47154;BME280;32907;41.412;2.164;2023-05-10T09:29:16;100677.88;;;24.47;38.03
47154;BME280;32907;41.412;2.164;2023-05-10T09:31:52;100673.69;;;24.49;38.28
47154;BME280;32907;41.412;2.164;2023-05-10T09:34:29;100627.13;;;24.18;39.52
47154;BME280;32907;41.412;2.164;2023-05-10T09:37:01;100629.22;;;24.21;39.49
47154;BME280;32907;41.412;2.164;2023-05-10T09:39:34;100661.75;;;24.45;40.61
47154;BME280;32907;41.412;2.164;2023-05-10T09:42:07;100649.31;;;24.39;40.59
47154;BME280;32907;41.412;2.164;2023-05-10T09:44:38;100633.94;;;24.29;41.04
47154;BME280;32907;41.412;2.164;2023-05-10T09:47:08;100661.75;;;24.54;41.11
47154;BME280;32907;41.412;2.164;2023-05-10T09:49:36;100649.69;;;24.46;41.73
47154;BME280;32907;41.412;2.164;2023-05-10T09:52:07;100646.25;;;24.41;41.91
47154;BME280;32907;41.412;2.164;2023-05-10T09:54:35;100625.75;;;24.38;41.82
47154;BME280;32907;41.412;2.164;2023-05-10T09:57:04;100604.44;;;24.26;42.03
47154;BME280;32907;41.412;2.164;2023-05-10T09:59:34;100610.56;;;24.23;42.46
47154;BME280;32907;41.412;2.164;2023-05-10T10:02:03;100627.22;;;24.36;42.18
47154;BME280;32907;41.412;2.164;2023-05-10T10:04:32;100626.75;;;24.42;42.43
47154;BME280;32907;41.412;2.164;2023-05-10T10:07:06;100640.97;;;24.53;43.10
47154;BME280;32907;41.412;2.164;2023-05-10T10:09:34;100684.91;;;24.79;43.14
47154;BME280;32907;41.412;2.164;2023-05-10T10:12:03;100690.69;;;24.77;43.42
47154;BME280;32907;41.412;2.164;2023-05-10T10:14:33;100623.84;;;24.39;43.22
47154;BME280;32907;41.412;2.164;2023-05-10T10:17:02;100700.56;;;24.78;43.22
47154;BME280;32907;41.412;2.164;2023-05-10T10:19:35;100699.09;;;24.81;43.50
47154;BME280;32907;41.412;2.164;2023-05-10T10:22:05;100698.31;;;24.80;43.54
47154;BME280;32907;41.412;2.164;2023-05-10T10:24:34;100676.03;;;24.73;43.84
47154;BME280;32907;41.412;2.164;2023-05-10T10:29:52;100620.94;;;24.35;44.15
47154;BME280;32907;41.412;2.164;2023-05-10T10:35:20;100617.81;;;24.28;44.33
47154;BME280;32907;41.412;2.164;2023-05-10T10:37:50;100608.63;;;24.24;44.99
47154;BME280;32907;41.412;2.164;2023-05-10T10:41:10;100703.44;;;24.73;46.08
47154;BME280;32907;41.412;2.164;2023-05-10T10:44:37;100696.16;;;24.69;45.72
47154;BME280;32907;41.412;2.164;2023-05-10T10:47:44;100690.53;;;24.74;46.32
47154;BME280;32907;41.412;2.164;2023-05-10T10:51:03;100690.22;;;24.75;45.77
47154;BME280;32907;41.412;2.164;2023-05-10T10:53:56;100688.44;;;24.71;45.70
47154;BME280;32907;41.412;2.164;2023-05-10T10:57:21;100677.13;;;24.64;45.19
47154;BME280;32907;41.412;2.164;2023-05-10T11:00:33;100691.81;;;24.76;45.71
47154;BME280;32907;41.412;2.164;2023-05-10T11:03:39;100699.09;;;24.81;45.21
47154;BME280;32907;41.412;2.164;2023-05-10T11:07:57;100632.72;;;24.53;44.98
47154;BME280;32907;41.412;2.164;2023-05-10T11:13:47;100687.34;;;24.89;44.88
47154;BME280;32907;41.412;2.164;2023-05-10T11:19:09;100692.97;;;24.93;45.04
47154;BME280;32907;41.412;2.164;2023-05-10T11:22:12;100672.81;;;24.89;44.77
47154;BME280;32907;41.412;2.164;2023-05-10T11:24:56;100641.16;;;24.65;44.33
47154;BME280;32907;41.412;2.164;2023-05-10T11:27:25;100603.88;;;24.47;44.28
47154;BME280;32907;41.412;2.164;2023-05-10T11:29:54;100654.09;;;24.73;43.95
47154;BME280;32907;41.412;2.164;2023-05-10T11:32:23;100688.63;;;24.92;43.67
47154;BME280;32907;41.412;2.164;2023-05-10T11:34:51;100683.94;;;24.83;43.52
47154;BME280;32907;41.412;2.164;2023-05-10T11:37:19;100610.28;;;24.34;43.88
47154;BME280;32907;41.412;2.164;2023-05-10T11:39:47;100650.50;;;24.55;44.17
47154;BME280;32907;41.412;2.164;2023-05-10T11:42:17;100691.19;;;24.79;43.97
47154;BME280;32907;41.412;2.164;2023-05-10T11:44:45;100689.59;;;24.78;44.25
47154;BME280;32907;41.412;2.164;2023-05-10T11:47:15;100610.84;;;24.22;43.89
47154;BME280;32907;41.412;2.164;2023-05-10T11:49:44;100688.91;;;24.64;44.01
47154;BME280;32907;41.412;2.164;2023-05-10T11:52:12;100632.97;;;24.25;43.98
47154;BME280;32907;41.412;2.164;2023-05-10T11:54:54;100677.25;;;24.50;44.29
47154;BME280;32907;41.412;2.164;2023-05-10T11:57:26;100686.44;;;24.54;44.28
47154;BME280;32907;41.412;2.164;2023-05-10T11:59:56;100589.84;;;24.00;44.31
47154;BME280;32907;41.412;2.164;2023-05-10T12:02:25;100603.69;;;24.04;44.27
47154;BME280;32907;41.412;2.164;2023-05-10T12:04:55;100589.69;;;24.05;44.14
47154;BME280;32907;41.412;2.164;2023-05-10T12:07:26;100667.41;;;24.49;44.29
47154;BME280;32907;41.412;2.164;2023-05-10T12:10:08;100677.94;;;24.64;44.19
47154;BME280;32907;41.412;2.164;2023-05-10T12:15:06;100614.56;;;24.17;43.85
47154;BME280;32907;41.412;2.164;2023-05-10T12:17:39;100688.88;;;24.55;44.03
47154;BME280;32907;41.412;2.164;2023-05-10T12:20:20;100687.41;;;24.49;44.16
47154;BME280;32907;41.412;2.164;2023-05-10T12:22:54;100638.72;;;24.15;43.78
47154;BME280;32907;41.412;2.164;2023-05-10T12:25:33;100689.31;;;24.40;44.10
47154;BME280;32907;41.412;2.164;2023-05-10T12:28:04;100662.09;;;24.21;44.02
47154;BME280;32907;41.412;2.164;2023-05-10T12:30:50;100690.13;;;24.41;44.12
47154;BME280;32907;41.412;2.164;2023-05-10T12:33:20;100595.59;;;23.90;44.30
47154;BME280;32907;41.412;2.164;2023-05-10T12:35:51;100678.34;;;24.40;44.18
47154;BME280;32907;41.412;2.164;2023-05-10T12:38:42;100599.16;;;23.90;44.26
47154;BME280;32907;41.412;2.164;2023-05-10T12:41:14;100640.34;;;24.16;44.05
47154;BME280;32907;41.412;2.164;2023-05-10T12:43:43;100662.34;;;24.34;43.82
47154;BME280;32907;41.412;2.164;2023-05-10T12:46:14;100637.28;;;24.18;44.13
47154;BME280;32907;41.412;2.164;2023-05-10T12:48:44;100682.06;;;24.44;44.46
47154;BME280;32907;41.412;2.164;2023-05-10T12:51:13;100644.88;;;24.29;44.22
47154;BME280;32907;41.412;2.164;2023-05-10T12:53:44;100694.66;;;24.54;44.03
47154;BME280;32907;41.412;2.164;2023-05-10T12:56:22;100651.09;;;24.44;44.12
47154;BME280;32907;41.412;2.164;2023-05-10T12:58:55;100616.03;;;24.23;44.17
47154;BME280;32907;41.412;2.164;2023-05-10T13:01:23;100636.66;;;24.29;43.78
47154;BME280;32907;41.412;2.164;2023-05-10T13:03:51;100611.34;;;24.15;43.97
47154;BME280;32907;41.412;2.164;2023-05-10T13:06:19;100677.41;;;24.53;43.33
47154;BME280;32907;41.412;2.164;2023-05-10T13:08:48;100650.06;;;24.31;43.46
47154;BME280;32907;41.412;2.164;2023-05-10T13:11:17;100637.19;;;24.32;43.45
47154;BME280;32907;41.412;2.164;2023-05-10T13:13:47;100603.91;;;24.07;43.48
47154;BME280;32907;41.412;2.164;2023-05-10T13:16:15;100617.16;;;24.22;43.01
47154;BME280;32907;41.412;2.164;2023-05-10T13:18:44;100602.78;;;24.08;43.40
47154;BME280;32907;41.412;2.164;2023-05-10T13:21:12;100590.97;;;23.99;43.51
47154;BME280;32907;41.412;2.164;2023-05-10T13:23:40;100664.81;;;24.44;43.42
47154;BME280;32907;41.412;2.164;2023-05-10T13:26:08;100679.50;;;24.48;43.32
47154;BME280;32907;41.412;2.164;2023-05-10T13:28:37;100629.25;;;24.30;43.29
47154;BME280;32907;41.412;2.164;2023-05-10T13:31:07;100608.72;;;24.10;43.39
47154;BME280;32907;41.412;2.164;2023-05-10T13:33:35;100581.41;;;23.88;43.21
47154;BME280;32907;41.412;2.164;2023-05-10T13:36:03;100664.13;;;24.38;42.97
47154;BME280;32907;41.412;2.164;2023-05-10T13:38:32;100657.84;;;24.38;43.14
47154;BME280;32907;41.412;2.164;2023-05-10T13:41:00;100635.03;;;24.20;42.63